createdAt,value
2023-01-08T00:01:17.840Z,5.80
2023-01-08T00:03:45.149Z,5.80
2023-01-08T00:06:15.316Z,5.90
2023-01-08T00:08:42.746Z,5.90
2023-01-08T00:11:10.079Z,5.90
2023-01-08T00:13:37.217Z,6.00
2023-01-08T00:16:17.707Z,6.00
2023-01-08T00:18:45.731Z,6.10
2023-01-08T00:21:13.011Z,6.10
2023-01-08T00:23:39.979Z,6.20
2023-01-08T00:26:09.302Z,6.20
2023-01-08T00:28:36.509Z,6.20
2023-01-08T00:31:04.856Z,6.20
2023-01-08T00:33:32.308Z,6.30
2023-01-08T00:35:59.465Z,6.30
2023-01-08T00:38:29.879Z,6.30
2023-01-08T00:40:56.742Z,6.30
2023-01-08T00:43:24.786Z,6.30
2023-01-08T00:45:54.734Z,6.30
2023-01-08T00:48:27.666Z,6.30
2023-01-08T00:50:55.098Z,6.40
2023-01-08T00:53:22.776Z,6.40
2023-01-08T00:55:50.116Z,6.40
2023-01-08T00:58:16.971Z,6.40
2023-01-08T01:00:43.825Z,6.50
2023-01-08T01:03:10.671Z,6.50
2023-01-08T01:05:37.559Z,6.50
2023-01-08T01:08:04.704Z,6.50
2023-01-08T01:10:31.543Z,6.50
2023-01-08T01:12:58.619Z,6.50
2023-01-08T01:15:26.102Z,6.50
2023-01-08T01:17:52.953Z,6.40
2023-01-08T01:20:19.880Z,6.40
2023-01-08T01:22:46.816Z,6.40
2023-01-08T01:25:13.696Z,6.40
2023-01-08T01:27:40.809Z,6.40
2023-01-08T01:30:09.316Z,6.40
2023-01-08T01:32:36.171Z,6.30
2023-01-08T01:35:03.495Z,6.30
2023-01-08T01:37:30.396Z,6.30
2023-01-08T01:39:57.999Z,6.30
2023-01-08T01:42:40.107Z,6.30
2023-01-08T01:45:22.715Z,6.30
2023-01-08T01:48:01.321Z,6.40
2023-01-08T01:50:35.755Z,6.40
2023-01-08T01:53:21.956Z,6.40
2023-01-08T01:55:49.732Z,6.40
2023-01-08T01:58:19.114Z,6.40
2023-01-08T02:00:46.430Z,6.40
2023-01-08T02:03:15.383Z,6.40
2023-01-08T02:05:48.178Z,6.40
2023-01-08T02:08:39.131Z,6.40
2023-01-08T02:11:11.404Z,6.40
2023-01-08T02:13:43.048Z,6.40
2023-01-08T02:16:37.505Z,6.40
2023-01-08T02:19:20.119Z,6.40
2023-01-08T02:22:03.551Z,6.40
2023-01-08T02:24:46.760Z,6.50
2023-01-08T02:27:16.205Z,6.50
2023-01-08T02:29:44.370Z,6.60
2023-01-08T02:32:11.670Z,6.60
2023-01-08T02:34:38.508Z,6.60
2023-01-08T02:37:05.588Z,6.60
2023-01-08T02:39:38.435Z,6.60
2023-01-08T02:42:16.537Z,6.50
2023-01-08T02:45:09.578Z,6.50
2023-01-08T02:47:39.478Z,6.50
2023-01-08T02:50:15.521Z,6.50
2023-01-08T02:52:56.558Z,6.60
2023-01-08T02:55:25.574Z,6.60
2023-01-08T02:57:53.227Z,6.60
2023-01-08T03:00:20.936Z,6.60
2023-01-08T03:02:51.379Z,6.60
2023-01-08T03:05:26.547Z,6.60
2023-01-08T03:07:54.801Z,6.60
2023-01-08T03:10:24.934Z,6.60
2023-01-08T03:12:57.503Z,6.70
2023-01-08T03:15:49.783Z,6.70
2023-01-08T03:18:21.488Z,6.70
2023-01-08T03:20:50.141Z,6.70
2023-01-08T03:23:19.702Z,6.70
2023-01-08T03:25:48.556Z,6.70
2023-01-08T03:28:30.572Z,6.70
2023-01-08T03:30:59.188Z,6.70
2023-01-08T03:33:28.020Z,6.70
2023-01-08T03:35:57.385Z,6.70
2023-01-08T03:38:29.376Z,6.70
2023-01-08T03:41:07.337Z,6.70
2023-01-08T03:43:34.290Z,6.70
2023-01-08T03:46:05.180Z,6.70
2023-01-08T03:48:34.273Z,6.70
2023-01-08T03:51:01.181Z,6.70
2023-01-08T03:53:28.469Z,6.70
2023-01-08T03:55:56.772Z,6.70
2023-01-08T03:58:23.603Z,6.70
2023-01-08T04:00:50.465Z,6.70
2023-01-08T04:03:17.278Z,6.70
2023-01-08T04:05:44.152Z,6.80
2023-01-08T04:08:10.976Z,6.80
2023-01-08T04:10:37.917Z,6.80
2023-01-08T04:13:04.773Z,6.80
2023-01-08T04:15:31.818Z,6.80
2023-01-08T04:17:58.731Z,6.80
2023-01-08T04:20:25.558Z,6.80
2023-01-08T04:22:52.375Z,6.90
2023-01-08T04:25:19.501Z,6.90
2023-01-08T04:27:46.350Z,6.90
2023-01-08T04:30:13.516Z,6.90
2023-01-08T04:32:40.589Z,6.90
2023-01-08T04:35:07.663Z,6.90
2023-01-08T04:37:34.506Z,6.90
2023-01-08T04:40:01.400Z,6.90
2023-01-08T04:42:28.272Z,7.00
2023-01-08T04:44:55.156Z,7.00
2023-01-08T04:47:22.039Z,7.00
2023-01-08T04:49:48.844Z,7.00
2023-01-08T04:52:15.670Z,7.00
2023-01-08T04:54:42.489Z,7.10
2023-01-08T04:57:09.393Z,7.10
2023-01-08T04:59:36.258Z,7.10
2023-01-08T05:02:03.329Z,7.20
2023-01-08T05:04:30.422Z,7.10
2023-01-08T05:06:57.244Z,7.10
2023-01-08T05:09:24.091Z,7.20
2023-01-08T05:11:50.962Z,7.20
2023-01-08T05:14:17.812Z,7.20
2023-01-08T05:16:44.670Z,7.20
2023-01-08T05:19:11.524Z,7.20
2023-01-08T05:21:38.386Z,7.30
2023-01-08T05:24:05.536Z,7.30
2023-01-08T05:26:32.900Z,7.30
2023-01-08T05:28:59.797Z,7.20
2023-01-08T05:31:26.956Z,7.30
2023-01-08T05:33:53.975Z,7.30
2023-01-08T05:36:20.882Z,7.30
2023-01-08T05:38:47.788Z,7.30
2023-01-08T05:41:14.723Z,7.30
2023-01-08T05:43:41.620Z,7.30
2023-01-08T05:46:08.712Z,7.30
2023-01-08T05:48:37.334Z,7.30
2023-01-08T05:51:04.987Z,7.30
2023-01-08T05:53:33.076Z,7.30
2023-01-08T05:56:06.618Z,7.30
2023-01-08T05:58:34.808Z,7.30
2023-01-08T06:01:13.032Z,7.30
2023-01-08T06:03:40.101Z,7.30
2023-01-08T06:06:07.823Z,7.20
2023-01-08T06:08:35.227Z,7.20
2023-01-08T06:11:04.270Z,7.20
2023-01-08T06:13:31.642Z,7.20
2023-01-08T06:16:00.356Z,7.20
2023-01-08T06:18:28.268Z,7.20
2023-01-08T06:20:55.281Z,7.30
2023-01-08T06:23:22.147Z,7.30
2023-01-08T06:25:54.193Z,7.30
2023-01-08T06:28:21.091Z,7.30
2023-01-08T06:30:48.350Z,7.30
2023-01-08T06:33:15.827Z,7.30
2023-01-08T06:35:42.686Z,7.30
2023-01-08T06:38:09.736Z,7.30
2023-01-08T06:40:36.637Z,7.30
2023-01-08T06:43:05.533Z,7.30
2023-01-08T06:45:33.200Z,7.30
2023-01-08T06:48:04.766Z,7.30
2023-01-08T06:50:33.291Z,7.30
2023-01-08T06:53:00.449Z,7.30
2023-01-08T06:55:27.592Z,7.40
2023-01-08T06:57:58.618Z,7.40
2023-01-08T07:00:27.411Z,7.30
2023-01-08T07:02:55.207Z,7.30
2023-01-08T07:05:22.755Z,7.30
2023-01-08T07:07:50.140Z,7.30
2023-01-08T07:10:19.781Z,7.30
2023-01-08T07:12:47.122Z,7.30
2023-01-08T07:15:14.160Z,7.40
2023-01-08T07:17:41.127Z,7.40
2023-01-08T07:20:09.725Z,7.40
2023-01-08T07:22:36.584Z,7.30
2023-01-08T07:25:05.127Z,7.40
2023-01-08T07:27:31.954Z,7.40
2023-01-08T07:29:59.212Z,7.40
2023-01-08T07:32:26.050Z,7.40
2023-01-08T07:34:54.766Z,7.40
2023-01-08T07:37:21.706Z,7.50
2023-01-08T07:39:48.701Z,7.40
2023-01-08T07:42:15.557Z,7.50
2023-01-08T07:44:42.389Z,7.50
2023-01-08T07:47:09.201Z,7.50
2023-01-08T07:49:36.056Z,7.60
2023-01-08T07:52:02.893Z,7.60
2023-01-08T07:54:29.722Z,7.60
2023-01-08T07:56:56.580Z,7.60
2023-01-08T07:59:23.387Z,7.70
2023-01-08T08:01:50.295Z,7.70
2023-01-08T08:04:17.360Z,7.70
2023-01-08T08:06:44.241Z,7.70
2023-01-08T08:09:11.039Z,7.80
2023-01-08T08:11:39.079Z,7.80
2023-01-08T08:14:06.010Z,7.70
2023-01-08T08:16:33.040Z,7.80
2023-01-08T08:19:00.465Z,7.80
2023-01-08T08:21:29.425Z,7.70
2023-01-08T08:23:56.972Z,7.80
2023-01-08T08:26:24.255Z,7.80
2023-01-08T08:28:51.188Z,7.80
2023-01-08T08:31:18.049Z,7.80
2023-01-08T08:33:44.891Z,7.80
2023-01-08T08:36:11.815Z,7.80
2023-01-08T08:38:39.911Z,7.90
2023-01-08T08:41:07.442Z,7.90
2023-01-08T08:43:34.349Z,7.90
2023-01-08T08:46:01.194Z,7.90
2023-01-08T08:48:28.163Z,8.00
2023-01-08T08:50:55.101Z,8.00
2023-01-08T08:53:21.918Z,8.00
2023-01-08T08:55:48.756Z,8.00
2023-01-08T08:58:15.669Z,8.00
2023-01-08T09:00:43.534Z,8.00
2023-01-08T09:03:17.198Z,8.00
2023-01-08T09:05:44.215Z,8.00
2023-01-08T09:08:12.090Z,8.00
2023-01-08T09:10:42.373Z,8.00
2023-01-08T09:13:09.658Z,8.00
2023-01-08T09:15:37.919Z,8.10
2023-01-08T09:18:05.301Z,8.10
2023-01-08T09:20:32.385Z,8.10
2023-01-08T09:23:00.683Z,8.10
2023-01-08T09:25:28.114Z,8.10
2023-01-08T09:28:06.198Z,8.10
2023-01-08T09:30:33.266Z,8.10
2023-01-08T09:33:02.956Z,8.20
2023-01-08T09:35:30.854Z,8.20
2023-01-08T09:37:58.074Z,8.10
2023-01-08T09:40:32.435Z,8.20
2023-01-08T09:43:02.067Z,8.20
2023-01-08T09:45:31.718Z,8.20
2023-01-08T09:48:02.231Z,8.20
2023-01-08T09:50:30.542Z,8.20
2023-01-08T09:52:57.884Z,8.20
2023-01-08T09:55:25.455Z,8.30
2023-01-08T09:57:52.524Z,8.30
2023-01-08T10:00:29.370Z,8.30
2023-01-08T10:02:57.881Z,8.40
2023-01-08T10:05:27.861Z,8.40
2023-01-08T10:07:54.751Z,8.40
2023-01-08T10:10:30.663Z,8.50
2023-01-08T10:12:58.550Z,8.40
2023-01-08T10:15:26.004Z,8.50
2023-01-08T10:17:55.535Z,8.50
2023-01-08T10:20:24.620Z,8.50
2023-01-08T10:22:54.440Z,8.50
2023-01-08T10:25:24.439Z,8.50
2023-01-08T10:28:03.135Z,8.50
2023-01-08T10:30:42.530Z,8.50
2023-01-08T10:33:26.897Z,8.50
2023-01-08T10:36:06.564Z,8.60
2023-01-08T10:38:37.822Z,8.60
2023-01-08T10:41:09.486Z,8.60
2023-01-08T10:43:47.666Z,8.60
2023-01-08T10:46:36.550Z,8.60
2023-01-08T10:49:06.397Z,8.60
2023-01-08T10:51:33.778Z,8.60
2023-01-08T10:54:15.436Z,8.60
2023-01-08T10:56:44.472Z,8.60
2023-01-08T10:59:21.399Z,8.60
2023-01-08T11:01:50.376Z,8.60
2023-01-08T11:04:32.740Z,8.60
2023-01-08T11:07:05.783Z,8.60
2023-01-08T11:09:46.073Z,8.60
2023-01-08T11:12:23.666Z,8.60
2023-01-08T11:14:51.821Z,8.70
2023-01-08T11:17:18.748Z,8.70
2023-01-08T11:19:45.642Z,8.70
2023-01-08T11:22:20.811Z,8.70
2023-01-08T11:24:49.353Z,8.70
2023-01-08T11:27:17.146Z,8.80
2023-01-08T11:29:49.746Z,8.80
2023-01-08T11:32:19.598Z,8.80
2023-01-08T11:34:54.358Z,8.80
2023-01-08T11:37:24.578Z,8.80
2023-01-08T11:39:53.272Z,8.80
2023-01-08T11:42:29.106Z,8.80
2023-01-08T11:45:21.312Z,8.80
2023-01-08T11:48:09.062Z,8.80
2023-01-08T11:50:38.072Z,8.70
2023-01-08T11:53:23.517Z,8.80
2023-01-08T11:56:01.112Z,8.80
2023-01-08T11:58:55.212Z,8.80
2023-01-08T12:01:46.096Z,8.80
2023-01-08T12:04:45.144Z,8.90
2023-01-08T12:07:43.012Z,9.00
2023-01-08T12:10:21.615Z,9.10
2023-01-08T12:13:46.995Z,9.10
2023-01-08T12:16:47.965Z,9.20
2023-01-08T12:19:39.549Z,9.40
2023-01-08T12:22:25.378Z,9.60
2023-01-08T12:25:03.818Z,9.80
2023-01-08T12:27:56.450Z,10.00
2023-01-08T12:30:26.678Z,10.30
2023-01-08T12:33:09.364Z,10.40
2023-01-08T12:35:44.965Z,10.40
2023-01-08T12:38:19.092Z,10.40
2023-01-08T12:40:51.796Z,10.40
2023-01-08T12:43:33.475Z,10.60
2023-01-08T12:46:02.797Z,10.60
2023-01-08T12:48:33.626Z,10.50
2023-01-08T12:51:18.466Z,10.60
2023-01-08T12:54:25.233Z,10.50
2023-01-08T12:57:07.359Z,10.50
2023-01-08T12:59:44.990Z,10.30
2023-01-08T13:02:17.343Z,10.30
2023-01-08T13:04:46.320Z,10.40
2023-01-08T13:07:26.519Z,10.40
2023-01-08T13:10:08.953Z,10.20
2023-01-08T13:12:41.057Z,10.20
2023-01-08T13:15:08.903Z,10.20
2023-01-08T13:17:38.076Z,10.20
2023-01-08T13:20:07.281Z,10.40
2023-01-08T13:22:36.959Z,10.60
2023-01-08T13:25:17.092Z,10.60
2023-01-08T13:27:45.675Z,10.60
2023-01-08T13:30:31.574Z,10.60
2023-01-08T13:32:58.736Z,10.70
2023-01-08T13:35:29.569Z,10.70
2023-01-08T13:38:12.627Z,10.70
2023-01-08T13:40:46.433Z,10.60
2023-01-08T13:43:40.088Z,10.60
2023-01-08T13:46:18.743Z,10.50
2023-01-08T13:49:06.961Z,10.50
2023-01-08T13:51:43.930Z,10.50
2023-01-08T13:54:14.798Z,10.40
2023-01-08T13:56:43.022Z,10.40
2023-01-08T13:59:36.156Z,10.30
2023-01-08T14:02:03.550Z,10.30
2023-01-08T14:04:30.495Z,10.40
2023-01-08T14:07:15.813Z,10.40
2023-01-08T14:09:42.698Z,10.40
2023-01-08T14:12:20.423Z,10.50
2023-01-08T14:14:58.873Z,10.40
2023-01-08T14:17:32.173Z,10.40
2023-01-08T14:19:59.806Z,10.30
2023-01-08T14:22:33.762Z,10.20
2023-01-08T14:25:06.457Z,10.10
2023-01-08T14:27:33.947Z,10.00
2023-01-08T14:30:01.273Z,10.00
2023-01-08T14:32:29.982Z,9.90
2023-01-08T14:34:59.781Z,9.90
2023-01-08T14:37:26.769Z,9.90
2023-01-08T14:39:55.103Z,9.80
2023-01-08T14:42:42.281Z,9.80
2023-01-08T14:45:28.424Z,9.80
2023-01-08T14:48:17.343Z,9.80
2023-01-08T14:50:53.809Z,9.80
2023-01-08T14:53:28.832Z,9.80
2023-01-08T14:55:57.736Z,9.80
2023-01-08T14:58:34.225Z,9.90
2023-01-08T15:01:05.381Z,9.80
2023-01-08T15:03:34.651Z,9.80
2023-01-08T15:06:01.816Z,9.80
2023-01-08T15:08:43.284Z,9.80
2023-01-08T15:11:19.314Z,9.70
2023-01-08T15:13:48.187Z,9.70
2023-01-08T15:16:39.129Z,9.60
2023-01-08T15:19:07.898Z,9.50
2023-01-08T15:21:35.797Z,9.50
2023-01-08T15:24:04.777Z,9.50
2023-01-08T15:26:32.063Z,9.40
2023-01-08T15:29:04.256Z,9.40
2023-01-08T15:31:47.123Z,9.40
2023-01-08T15:34:19.753Z,9.40
2023-01-08T15:36:49.376Z,9.30
2023-01-08T15:39:16.217Z,9.30
2023-01-08T15:42:01.645Z,9.20
2023-01-08T15:44:28.496Z,9.20
2023-01-08T15:46:55.504Z,9.20
2023-01-08T15:49:22.326Z,9.20
2023-01-08T15:51:51.397Z,9.10
2023-01-08T15:54:20.714Z,9.10
2023-01-08T15:56:47.545Z,9.10
2023-01-08T15:59:14.391Z,9.10
2023-01-08T16:01:41.329Z,9.00
2023-01-08T16:04:08.426Z,9.00
2023-01-08T16:06:36.314Z,9.00
2023-01-08T16:09:03.657Z,9.00
2023-01-08T16:11:30.595Z,9.00
2023-01-08T16:13:57.416Z,9.00
2023-01-08T16:16:24.723Z,8.90
2023-01-08T16:18:52.558Z,8.90
2023-01-08T16:21:19.498Z,8.90
2023-01-08T16:23:46.337Z,8.90
2023-01-08T16:26:15.074Z,8.90
2023-01-08T16:28:42.527Z,8.90
2023-01-08T16:31:09.992Z,8.90
2023-01-08T16:33:37.601Z,8.90
2023-01-08T16:36:07.765Z,8.90
2023-01-08T16:38:35.421Z,8.90
2023-01-08T16:41:02.397Z,8.90
2023-01-08T16:43:30.830Z,8.90
2023-01-08T16:46:03.165Z,8.90
2023-01-08T16:48:30.825Z,8.90
2023-01-08T16:51:05.474Z,8.90
2023-01-08T16:53:33.118Z,8.90
2023-01-08T16:56:00.434Z,8.90
2023-01-08T16:58:27.405Z,8.90
2023-01-08T17:00:54.309Z,8.90
2023-01-08T17:03:21.531Z,8.90
2023-01-08T17:05:49.074Z,8.90
2023-01-08T17:08:16.961Z,8.90
2023-01-08T17:10:44.279Z,8.90
2023-01-08T17:13:11.302Z,8.90
2023-01-08T17:15:39.789Z,8.80
2023-01-08T17:18:06.676Z,8.90
2023-01-08T17:20:33.591Z,8.90
2023-01-08T17:23:01.597Z,8.80
2023-01-08T17:25:28.574Z,8.80
2023-01-08T17:27:55.469Z,8.80
2023-01-08T17:30:22.393Z,8.80
2023-01-08T17:32:49.232Z,8.80
2023-01-08T17:35:16.165Z,8.80
2023-01-08T17:37:42.992Z,8.80
2023-01-08T17:40:10.474Z,8.80
2023-01-08T17:42:39.328Z,8.70
2023-01-08T17:45:06.899Z,8.80
2023-01-08T17:47:35.069Z,8.80
2023-01-08T17:50:03.412Z,8.70
2023-01-08T17:52:30.214Z,8.80
2023-01-08T17:54:57.124Z,8.70
2023-01-08T17:57:24.063Z,8.80
2023-01-08T17:59:50.968Z,8.80
2023-01-08T18:02:18.399Z,8.80
2023-01-08T18:04:45.741Z,8.70
2023-01-08T18:07:12.848Z,8.70
2023-01-08T18:09:39.689Z,8.70
2023-01-08T18:12:07.021Z,8.60
2023-01-08T18:14:36.135Z,8.60
2023-01-08T18:17:03.350Z,8.60
2023-01-08T18:19:30.244Z,8.60
2023-01-08T18:21:57.267Z,8.60
2023-01-08T18:24:24.145Z,8.60
2023-01-08T18:26:51.127Z,8.60
2023-01-08T18:29:17.998Z,8.50
2023-01-08T18:31:46.325Z,8.60
2023-01-08T18:34:15.228Z,8.60
2023-01-08T18:36:42.307Z,8.50
2023-01-08T18:39:09.240Z,8.50
2023-01-08T18:41:54.932Z,8.50
2023-01-08T18:44:21.938Z,8.40
2023-01-08T18:46:48.864Z,8.40
2023-01-08T18:49:15.853Z,8.40
2023-01-08T18:51:43.057Z,8.40
2023-01-08T18:54:11.608Z,8.40
2023-01-08T18:56:38.980Z,8.40
2023-01-08T18:59:07.038Z,8.40
2023-01-08T19:01:35.413Z,8.40
2023-01-08T19:04:02.617Z,8.30
2023-01-08T19:06:29.566Z,8.30
2023-01-08T19:08:59.072Z,8.30
2023-01-08T19:11:26.144Z,8.30
2023-01-08T19:13:58.860Z,8.30
2023-01-08T19:16:26.695Z,8.30
2023-01-08T19:18:53.849Z,8.20
2023-01-08T19:21:20.872Z,8.20
2023-01-08T19:23:48.191Z,8.20
2023-01-08T19:26:15.624Z,8.20
2023-01-08T19:28:43.191Z,8.30
2023-01-08T19:31:13.774Z,8.20
2023-01-08T19:33:41.243Z,8.20
2023-01-08T19:36:12.691Z,8.20
2023-01-08T19:38:40.512Z,8.20
2023-01-08T19:41:30.592Z,8.20
2023-01-08T19:43:58.451Z,8.20
2023-01-08T19:46:25.910Z,8.20
2023-01-08T19:48:55.823Z,8.20
2023-01-08T19:51:22.717Z,8.20
2023-01-08T19:53:49.565Z,8.20
2023-01-08T19:56:16.478Z,8.20
2023-01-08T19:58:43.843Z,8.20
2023-01-08T20:01:16.420Z,8.20
2023-01-08T20:03:44.016Z,8.20
2023-01-08T20:06:19.623Z,8.20
2023-01-08T20:08:47.748Z,8.20
2023-01-08T20:11:16.681Z,8.20
2023-01-08T20:13:44.488Z,8.20
2023-01-08T20:16:17.392Z,8.20
2023-01-08T20:18:45.017Z,8.20
2023-01-08T20:21:17.081Z,8.20
2023-01-08T20:23:45.264Z,8.20
2023-01-08T20:26:15.949Z,8.20
2023-01-08T20:28:44.806Z,8.20
2023-01-08T20:31:19.507Z,8.20
2023-01-08T20:33:47.398Z,8.20
2023-01-08T20:36:23.595Z,8.20
2023-01-08T20:38:56.003Z,8.20
2023-01-08T20:41:24.462Z,8.20
2023-01-08T20:43:51.376Z,8.10
2023-01-08T20:46:18.315Z,8.20
2023-01-08T20:48:48.457Z,8.10
2023-01-08T20:51:16.195Z,8.10
2023-01-08T20:53:43.111Z,8.10
2023-01-08T20:56:15.055Z,8.10
2023-01-08T20:58:44.634Z,8.10
2023-01-08T21:01:14.799Z,8.00
2023-01-08T21:03:42.567Z,8.00
2023-01-08T21:06:16.123Z,7.90
2023-01-08T21:08:44.517Z,7.90
2023-01-08T21:11:12.600Z,7.90
2023-01-08T21:13:39.671Z,7.90
2023-01-08T21:16:10.014Z,7.90
2023-01-08T21:18:40.453Z,7.90
2023-01-08T21:21:08.097Z,7.90
2023-01-08T21:23:34.943Z,7.90
2023-01-08T21:26:07.388Z,7.90
2023-01-08T21:28:34.671Z,7.90
2023-01-08T21:31:11.657Z,7.90
2023-01-08T21:33:38.907Z,7.90
2023-01-08T21:36:13.919Z,7.80
2023-01-08T21:38:41.638Z,7.80
2023-01-08T21:41:11.845Z,7.80
2023-01-08T21:43:57.146Z,7.90
2023-01-08T21:46:27.512Z,7.90
2023-01-08T21:48:54.352Z,7.80
2023-01-08T21:51:39.569Z,7.80
2023-01-08T21:54:06.399Z,7.80
2023-01-08T21:56:33.412Z,7.80
2023-01-08T21:59:00.281Z,7.80
2023-01-08T22:01:27.225Z,7.80
2023-01-08T22:03:54.474Z,7.70
2023-01-08T22:06:21.345Z,7.70
2023-01-08T22:08:52.664Z,7.70
2023-01-08T22:11:19.861Z,7.70
2023-01-08T22:13:46.696Z,7.70
2023-01-08T22:16:13.733Z,7.80
2023-01-08T22:18:40.608Z,7.70
2023-01-08T22:21:09.807Z,7.80
2023-01-08T22:23:37.344Z,7.80
2023-01-08T22:26:09.889Z,7.70
2023-01-08T22:28:40.307Z,7.70
2023-01-08T22:31:11.810Z,7.70
2023-01-08T22:33:40.075Z,7.60
2023-01-08T22:36:10.811Z,7.70
2023-01-08T22:38:38.244Z,7.60
2023-01-08T22:41:10.831Z,7.60
2023-01-08T22:43:37.776Z,7.60
2023-01-08T22:46:04.743Z,7.60
2023-01-08T22:48:31.642Z,7.60
2023-01-08T22:51:03.390Z,7.60
2023-01-08T22:53:30.479Z,7.50
2023-01-08T22:55:57.332Z,7.60
2023-01-08T22:58:24.170Z,7.50
2023-01-08T23:00:51.025Z,7.50
2023-01-08T23:03:17.912Z,7.50
2023-01-08T23:05:44.853Z,7.50
2023-01-08T23:08:11.765Z,7.50
2023-01-08T23:10:38.802Z,7.50
2023-01-08T23:13:05.741Z,7.50
2023-01-08T23:15:32.560Z,7.40
2023-01-08T23:17:59.417Z,7.40
2023-01-08T23:20:26.269Z,7.40
2023-01-08T23:22:53.765Z,7.30
2023-01-08T23:25:20.680Z,7.40
2023-01-08T23:27:47.573Z,7.30
2023-01-08T23:30:14.500Z,7.40
2023-01-08T23:32:41.354Z,7.30
2023-01-08T23:35:08.554Z,7.40
2023-01-08T23:37:35.458Z,7.40
2023-01-08T23:40:02.349Z,7.30
2023-01-08T23:42:29.876Z,7.30
2023-01-08T23:44:56.832Z,7.30
2023-01-08T23:47:23.849Z,7.30
2023-01-08T23:49:50.752Z,7.30
2023-01-08T23:52:17.624Z,7.30
2023-01-08T23:54:44.481Z,7.30
2023-01-08T23:57:11.345Z,7.20
2023-01-08T23:59:38.298Z,7.30
